createdAt,value
2022-12-28T01:58:52.757Z,100550.46
2022-12-28T02:01:33.381Z,100552.59
2022-12-28T02:04:00.919Z,100553.88
2022-12-28T02:06:30.137Z,100550.38
2022-12-28T02:09:27.860Z,100548.07
2022-12-28T02:12:01.472Z,100546.15
2022-12-28T02:14:42.058Z,100541.23
2022-12-28T02:17:14.818Z,100536.52
2022-12-28T02:19:46.858Z,100542.13
2022-12-28T02:22:53.624Z,100530.12
2022-12-28T02:25:35.341Z,100524.25
2022-12-28T02:28:12.100Z,100519.66
2022-12-28T02:31:08.047Z,100515.79
2022-12-28T02:33:49.121Z,100512.81
2022-12-28T02:36:27.487Z,100510.89
2022-12-28T02:39:04.895Z,100509.49
2022-12-28T02:41:34.094Z,100509.98
2022-12-28T02:44:01.520Z,100503.05
2022-12-28T02:46:49.125Z,100500.64
2022-12-28T02:49:44.907Z,100493.00
2022-12-28T02:52:42.922Z,100487.02
2022-12-28T02:55:46.340Z,100485.48
2022-12-28T02:58:34.874Z,100476.83
2022-12-28T03:01:32.467Z,100475.94
2022-12-28T03:04:15.344Z,100468.23
2022-12-28T03:07:32.633Z,100462.71
2022-12-28T03:10:31.913Z,100461.02
2022-12-28T03:13:04.696Z,100453.87
2022-12-28T03:15:37.401Z,100456.07
2022-12-28T03:18:31.845Z,100453.98
2022-12-28T03:21:22.801Z,100443.31
2022-12-28T03:24:10.775Z,100438.05
2022-12-28T03:27:03.217Z,100433.77
2022-12-28T03:29:58.507Z,100435.69
2022-12-28T03:32:26.368Z,100427.42
2022-12-28T03:34:53.679Z,100413.10
2022-12-28T03:37:27.202Z,100417.17
2022-12-28T03:40:11.196Z,100407.85
2022-12-28T03:43:07.452Z,100405.90
2022-12-28T03:45:45.101Z,100398.30
2022-12-28T03:48:15.597Z,100396.67
2022-12-28T03:50:45.881Z,100400.59
2022-12-28T03:53:13.819Z,100396.34
2022-12-28T03:55:42.747Z,100401.55
2022-12-28T03:58:10.148Z,100397.25
2022-12-28T04:00:37.291Z,100389.63
2022-12-28T04:03:04.324Z,100379.67
2022-12-28T04:05:31.360Z,100371.46
2022-12-28T04:07:58.459Z,100367.58
2022-12-28T04:10:25.378Z,100359.20
2022-12-28T04:12:56.503Z,100351.11
2022-12-28T04:15:23.708Z,100345.98
2022-12-28T04:17:50.699Z,100339.70
2022-12-28T04:20:17.670Z,100332.05
2022-12-28T04:22:44.611Z,100325.88
2022-12-28T04:25:11.539Z,100309.68
2022-12-28T04:27:38.545Z,100306.08
2022-12-28T04:30:06.145Z,100299.66
2022-12-28T04:32:33.708Z,100300.60
2022-12-28T04:35:00.588Z,100298.29
2022-12-28T04:37:27.669Z,100294.54
2022-12-28T04:39:57.372Z,100299.04
2022-12-28T04:42:25.257Z,100298.83
2022-12-28T04:44:52.157Z,100295.55
2022-12-28T04:47:19.148Z,100293.61
2022-12-28T04:49:46.238Z,100293.81
2022-12-28T04:52:13.403Z,100284.52
2022-12-28T04:54:40.322Z,100283.74
2022-12-28T04:57:07.510Z,100283.98
2022-12-28T04:59:34.616Z,100282.45
2022-12-28T05:02:01.620Z,100277.48
2022-12-28T05:04:28.783Z,100269.21
2022-12-28T05:06:55.767Z,100259.62
2022-12-28T05:09:22.698Z,100253.60
2022-12-28T05:11:50.515Z,100245.49
2022-12-28T05:14:17.398Z,100233.21
2022-12-28T05:16:44.323Z,100225.23
2022-12-28T05:19:11.299Z,100218.77
2022-12-28T05:21:40.201Z,100212.79
2022-12-28T05:24:07.437Z,100210.09
2022-12-28T05:26:35.306Z,100210.33
2022-12-28T05:29:02.357Z,100213.71
2022-12-28T05:31:29.398Z,100212.33
2022-12-28T05:33:56.491Z,100217.37
2022-12-28T05:36:27.225Z,100210.32
2022-12-28T05:38:55.424Z,100207.55
2022-12-28T05:41:24.956Z,100211.15
2022-12-28T05:43:52.655Z,100210.92
2022-12-28T05:46:24.288Z,100204.70
2022-12-28T05:48:51.293Z,100201.12
2022-12-28T05:51:20.470Z,100191.15
2022-12-28T05:53:47.877Z,100188.05
2022-12-28T05:56:17.636Z,100183.66
2022-12-28T05:58:46.631Z,100178.42
2022-12-28T06:01:16.810Z,100178.23
2022-12-28T06:03:44.787Z,100178.41
2022-12-28T06:06:14.369Z,100178.08
2022-12-28T06:08:43.113Z,100166.84
2022-12-28T06:11:13.240Z,100160.65
2022-12-28T06:13:40.495Z,100160.25
2022-12-28T06:16:27.999Z,100157.84
2022-12-28T06:18:55.288Z,100154.18
2022-12-28T06:21:27.212Z,100158.17
2022-12-28T06:23:57.341Z,100160.74
2022-12-28T06:26:27.372Z,100160.89
2022-12-28T06:28:54.685Z,100157.40
2022-12-28T06:31:24.291Z,100157.36
2022-12-28T06:33:56.719Z,100150.48
2022-12-28T06:36:42.837Z,100147.58
2022-12-28T06:39:12.551Z,100138.40
2022-12-28T06:41:40.691Z,100134.58
2022-12-28T06:44:09.622Z,100136.21
2022-12-28T06:46:37.482Z,100136.91
2022-12-28T06:49:04.817Z,100132.09
2022-12-28T06:51:38.155Z,100129.40
2022-12-28T06:54:05.680Z,100132.38
2022-12-28T06:56:34.201Z,100139.10
2022-12-28T06:59:03.866Z,100143.39
2022-12-28T07:01:34.852Z,100140.09
2022-12-28T07:04:04.092Z,100137.36
2022-12-28T07:06:36.009Z,100141.40
2022-12-28T07:09:06.403Z,100141.73
2022-12-28T07:11:33.406Z,100142.91
2022-12-28T07:14:00.355Z,100141.56
2022-12-28T07:18:56.051Z,100145.23
2022-12-28T07:21:28.590Z,100140.64
2022-12-28T07:23:56.681Z,100145.54
2022-12-28T07:26:27.088Z,100138.42
2022-12-28T07:28:56.244Z,100138.58
2022-12-28T07:31:28.239Z,100129.29
2022-12-28T07:33:56.866Z,100123.96
2022-12-28T07:36:25.266Z,100119.63
2022-12-28T07:38:52.711Z,100114.05
2022-12-28T07:41:31.136Z,100108.85
2022-12-28T07:43:59.291Z,100102.64
2022-12-28T07:46:29.535Z,100090.08
2022-12-28T07:48:56.695Z,100088.21
2022-12-28T07:51:30.883Z,100080.46
2022-12-28T07:53:59.409Z,100061.13
2022-12-28T07:56:28.142Z,100055.27
2022-12-28T07:58:58.004Z,100048.83
2022-12-28T08:01:27.681Z,100048.30
2022-12-28T08:03:57.368Z,100042.45
2022-12-28T08:06:25.913Z,100045.91
2022-12-28T08:08:55.196Z,100039.55
2022-12-28T08:11:24.967Z,100037.34
2022-12-28T08:13:54.743Z,100031.96
2022-12-28T08:16:24.021Z,100026.92
2022-12-28T08:18:50.869Z,100028.79
2022-12-28T08:21:24.884Z,100023.97
2022-12-28T08:23:52.031Z,100017.48
2022-12-28T08:26:30.283Z,100019.48
2022-12-28T08:29:00.118Z,100016.23
2022-12-28T08:31:29.182Z,100012.39
2022-12-28T08:33:57.947Z,100004.05
2022-12-28T08:36:25.434Z,100003.31
2022-12-28T08:38:52.848Z,100000.26
2022-12-28T08:41:21.965Z,99996.16
2022-12-28T08:43:50.919Z,99996.96
2022-12-28T08:46:23.873Z,99999.95
2022-12-28T08:48:52.790Z,100000.30
2022-12-28T08:51:22.866Z,99998.02
2022-12-28T08:53:50.318Z,99990.11
2022-12-28T08:56:29.121Z,99988.67
2022-12-28T08:58:57.546Z,99988.90
2022-12-28T09:01:42.564Z,99985.48
2022-12-28T09:04:21.688Z,99985.36
2022-12-28T09:06:49.425Z,99985.34
2022-12-28T09:09:19.068Z,99991.06
2022-12-28T09:11:48.423Z,99992.48
2022-12-28T09:14:24.359Z,99992.36
2022-12-28T09:16:53.324Z,99984.36
2022-12-28T09:19:21.311Z,99978.23
2022-12-28T09:21:52.754Z,99977.23
2022-12-28T09:24:20.029Z,99974.27
2022-12-28T09:26:48.200Z,99973.56
2022-12-28T09:29:15.077Z,99969.59
2022-12-28T09:31:43.470Z,99965.14
2022-12-28T09:37:00.089Z,99957.69
2022-12-28T09:39:28.276Z,99950.30
2022-12-28T09:42:03.600Z,99946.22
2022-12-28T09:45:08.647Z,99941.42
2022-12-28T09:47:41.525Z,99938.91
2022-12-28T09:50:12.156Z,99932.61
2022-12-28T09:52:57.583Z,99925.73
2022-12-28T09:55:25.434Z,99923.75
2022-12-28T09:57:57.153Z,99908.91
2022-12-28T10:00:28.193Z,99905.70
2022-12-28T10:03:02.576Z,99892.80
2022-12-28T10:05:32.850Z,99889.40
2022-12-28T10:07:59.841Z,99882.15
2022-12-28T10:10:28.031Z,99881.02
2022-12-28T10:12:58.659Z,99869.67
2022-12-28T10:15:27.991Z,99867.12
2022-12-28T10:17:55.040Z,99859.52
2022-12-28T10:20:22.287Z,99851.91
2022-12-28T10:22:53.519Z,99844.64
2022-12-28T10:25:23.566Z,99845.59
2022-12-28T10:27:50.973Z,99841.86
2022-12-28T10:30:26.393Z,99837.93
2022-12-28T10:33:02.175Z,99843.70
2022-12-28T10:35:33.118Z,99839.74
2022-12-28T10:38:05.037Z,99836.64
2022-12-28T10:40:36.011Z,99840.27
2022-12-28T10:43:10.156Z,99840.84
2022-12-28T10:45:47.473Z,99837.73
2022-12-28T10:48:19.254Z,99833.30
2022-12-28T10:51:38.759Z,99830.59
2022-12-28T10:54:28.263Z,99830.94
2022-12-28T10:56:57.962Z,99821.22
2022-12-28T10:59:27.299Z,99816.92
2022-12-28T11:01:57.893Z,99806.24
2022-12-28T11:04:25.895Z,99798.87
2022-12-28T11:06:55.068Z,99796.86
2022-12-28T11:09:33.134Z,99799.11
2022-12-28T11:12:17.798Z,99796.33
2022-12-28T11:14:44.873Z,99790.08
2022-12-28T11:17:20.325Z,99789.94
2022-12-28T11:19:49.169Z,99787.20
2022-12-28T11:22:20.314Z,99786.94
2022-12-28T11:24:48.167Z,99783.89
2022-12-28T11:27:17.721Z,99778.90
2022-12-28T11:29:46.144Z,99775.11
2022-12-28T11:32:28.331Z,99779.13
2022-12-28T11:34:57.205Z,99778.06
2022-12-28T11:37:24.583Z,99780.37
2022-12-28T11:39:59.931Z,99768.48
2022-12-28T12:11:37.564Z,99729.98
2022-12-28T12:21:41.962Z,99716.20
2022-12-28T12:28:00.806Z,99697.23
2022-12-28T14:11:30.849Z,99645.88
2022-12-28T14:17:12.307Z,99654.06
2022-12-28T14:23:26.063Z,99651.52
2022-12-28T14:26:22.906Z,99640.04
2022-12-28T14:29:00.003Z,99641.09
2022-12-28T14:31:36.012Z,99643.40
2022-12-28T14:34:23.733Z,99638.15
2022-12-28T14:36:52.210Z,99645.39
2022-12-28T14:39:34.250Z,99650.64
2022-12-28T14:42:02.597Z,99661.59
2022-12-28T14:44:37.580Z,99653.96
2022-12-28T14:47:23.877Z,99653.80
2022-12-28T14:49:57.055Z,99653.45
2022-12-28T14:52:23.978Z,99653.30
2022-12-28T14:54:51.637Z,99652.12
2022-12-28T14:57:44.491Z,99655.64
2022-12-28T15:00:22.493Z,99660.73
2022-12-28T15:02:49.448Z,99661.46
2022-12-28T15:05:34.832Z,99662.53
2022-12-28T15:08:02.492Z,99659.42
2022-12-28T15:10:34.811Z,99661.33
2022-12-28T15:13:01.956Z,99660.64
2022-12-28T15:15:28.820Z,99655.46
2022-12-28T15:17:55.585Z,99657.21
2022-12-28T15:20:22.431Z,99654.66
2022-12-28T15:22:49.329Z,99654.00
2022-12-28T15:25:16.128Z,99648.27
2022-12-28T15:27:43.094Z,99652.11
2022-12-28T15:30:14.412Z,99654.40
2022-12-28T15:32:44.344Z,99655.30
2022-12-28T15:35:11.348Z,99658.63
2022-12-28T15:37:38.692Z,99658.67
2022-12-28T15:40:06.081Z,99662.34
2022-12-28T15:42:39.830Z,99663.05
2022-12-28T15:45:10.034Z,99657.15
2022-12-28T15:47:37.583Z,99654.56
2022-12-28T15:50:05.009Z,99652.47
2022-12-28T15:52:32.298Z,99655.61
2022-12-28T15:54:59.435Z,99655.13
2022-12-28T15:57:29.271Z,99658.42
2022-12-28T16:49:52.856Z,99661.38
2022-12-28T16:51:57.279Z,99656.04
2022-12-28T16:54:51.756Z,99653.65
2022-12-28T16:58:05.834Z,99655.05
2022-12-28T17:00:41.879Z,99654.54
2022-12-28T17:03:47.531Z,99649.64
2022-12-28T17:06:40.292Z,99648.80
2022-12-28T17:09:09.185Z,99648.13
2022-12-28T17:11:42.164Z,99648.67
2022-12-28T17:14:17.354Z,99643.95
2022-12-28T17:16:51.222Z,99643.11
2022-12-28T17:19:18.307Z,99639.81
2022-12-28T17:22:03.347Z,99641.73
2022-12-28T17:25:03.227Z,99637.92
2022-12-28T17:28:18.061Z,99632.38
2022-12-28T17:31:36.503Z,99622.80
2022-12-28T17:34:09.271Z,99635.73
2022-12-28T17:39:43.903Z,99625.88
2022-12-28T17:42:20.399Z,99628.48
2022-12-28T17:45:09.190Z,99621.86
2022-12-28T17:47:55.737Z,99623.27
2022-12-28T17:50:30.904Z,99621.66
2022-12-28T17:56:16.016Z,99627.66
2022-12-28T17:58:49.015Z,99627.70
2022-12-28T18:01:16.562Z,99623.02
2022-12-28T18:06:56.667Z,99614.67
2022-12-28T18:09:27.653Z,99614.52
2022-12-28T18:12:35.044Z,99609.84
2022-12-28T18:15:01.864Z,99613.68
2022-12-28T18:17:28.700Z,99607.60
2022-12-28T18:19:55.623Z,99610.06
2022-12-28T18:22:25.433Z,99613.54
2022-12-28T18:24:53.067Z,99607.98
2022-12-28T18:27:19.893Z,99599.11
2022-12-28T18:29:46.857Z,99601.71
2022-12-28T18:32:13.701Z,99600.52
2022-12-28T18:34:40.469Z,99602.77
2022-12-28T18:37:07.508Z,99600.88
2022-12-28T18:39:36.832Z,99596.89
2022-12-28T18:42:03.743Z,99598.46
2022-12-28T18:44:30.555Z,99598.64
2022-12-28T18:47:06.468Z,99603.34
2022-12-28T18:49:34.465Z,99600.55
2022-12-28T18:52:01.592Z,99600.70
2022-12-28T18:54:28.361Z,99595.14
2022-12-28T18:56:55.930Z,99592.36
2022-12-28T18:59:22.727Z,99596.19
2022-12-28T19:02:07.428Z,99592.56
2022-12-28T19:04:36.155Z,99589.08
2022-12-28T19:07:03.071Z,99590.66
2022-12-28T19:09:32.750Z,99587.89
2022-12-28T19:12:30.627Z,99594.83
2022-12-28T19:25:33.340Z,99584.67
2022-12-28T20:14:31.466Z,99578.02
2022-12-28T20:21:21.426Z,99573.29
2022-12-28T20:23:50.193Z,99579.42
2022-12-28T20:26:28.775Z,99582.40
2022-12-28T20:52:08.795Z,99565.50
2022-12-28T20:55:30.193Z,99563.58
2022-12-28T20:58:58.630Z,99562.55
2022-12-28T21:01:08.392Z,99559.94
2022-12-28T21:04:59.885Z,99554.54
2022-12-28T21:49:04.252Z,99522.70
2022-12-28T22:06:48.928Z,99513.98
2022-12-28T22:09:51.932Z,99511.55
2022-12-28T22:12:34.130Z,99517.63
2022-12-28T22:15:21.425Z,99515.02
2022-12-28T22:21:41.439Z,99506.54
2022-12-28T22:24:11.024Z,99498.20
2022-12-28T22:26:40.707Z,99493.86
2022-12-28T22:29:15.519Z,99489.67
2022-12-28T22:31:45.969Z,99490.89
2022-12-28T22:37:54.499Z,99489.86
2022-12-28T22:41:07.043Z,99483.10
2022-12-28T22:44:02.881Z,99485.71
2022-12-28T22:50:46.175Z,99476.28
2022-12-28T22:53:13.304Z,99486.95
2022-12-28T22:55:40.339Z,99482.42
2022-12-28T22:58:07.228Z,99488.34
2022-12-28T23:00:34.059Z,99488.19
2022-12-28T23:03:08.263Z,99485.39
2022-12-28T23:05:35.151Z,99475.14
2022-12-28T23:08:06.756Z,99473.92
2022-12-28T23:10:37.280Z,99455.30
2022-12-28T23:36:51.214Z,99428.39
2022-12-28T23:50:06.526Z,99412.23
2022-12-28T23:56:15.940Z,99423.52
